Terminal Aerodrome Forecast
Issued by NWS

Home | Current Version | Previous Version | Text Only | Print | Product List | Glossary On
Versions: 1 2 3 4 5 6 7 8 9 10 11 12 13
000
FTUS46 KLOX 260535
TAFVNY
TAF
KVNY 260535Z 2606/2706 VRB03KT P6SM SKC
     FM261200 VRB03KT 6SM BR FEW006
     FM261500 VRB03KT P6SM SKC
     FM262000 16008KT P6SM SKC
     FM270400 VRB03KT P6SM SKC=

USA.gov is the U.S. government's official web portal to all federal, state and local government web resources and services.